Time;durP1;ratioP1;P1;durP2;ratioP2;P2;SDS_P1;SDS_P2;PMS_P1;PMS_P2;Temp;Humidity;BMP_temperature;BMP_pressure;BME280_temperature;BME280_humidity;BME280_pressure;Samples;Min_cycle;Max_cycle;Signal;HPM_P1;HPM_P2
2022/09/11 00:00:15;;;;;;;8.55;5.75;;;;;;;18.14;65.93;101633.44;5080019;28;20055;-64
2022/09/11 00:02:43;;;;;;;5.93;5.13;;;;;;;18.12;65.99;101641.84;5068008;28;20111;-64
2022/09/11 00:05:11;;;;;;;10.07;5.80;;;;;;;18.13;65.96;101645.41;5070709;28;20048;-64
2022/09/11 00:07:38;;;;;;;7.55;5.43;;;;;;;18.11;66.04;101655.72;5079860;28;20072;-64
2022/09/11 00:10:06;;;;;;;8.65;5.13;;;;;;;18.11;66.03;101650.28;5085342;28;20370;-65
2022/09/11 00:12:34;;;;;;;7.88;5.18;;;;;;;18.10;65.75;101652.16;5087404;28;20044;-64
2022/09/11 00:15:04;;;;;;;8.80;6.20;;;;;;;18.10;65.93;101654.06;5084920;28;20064;-64
2022/09/11 00:17:31;;;;;;;10.32;6.05;;;;;;;18.09;66.01;101657.88;5080358;28;20040;-64
2022/09/11 00:20:00;;;;;;;7.55;5.50;;;;;;;18.09;65.77;101655.97;5086278;28;20075;-64
2022/09/11 00:22:27;;;;;;;9.95;5.38;;;;;;;18.09;65.82;101657.88;5090880;28;20071;-64
2022/09/11 00:24:56;;;;;;;7.35;5.50;;;;;;;18.06;65.91;101655.66;5085985;28;20061;-64
2022/09/11 00:27:24;;;;;;;10.25;5.75;;;;;;;18.06;65.73;101658.38;5087023;28;20532;-64
2022/09/11 00:29:53;;;;;;;9.90;6.30;;;;;;;18.05;65.93;101659.44;5086564;28;20048;-64
2022/09/11 00:32:22;;;;;;;7.13;5.40;;;;;;;18.05;65.86;101671.16;5066807;28;20045;-64
2022/09/11 00:34:50;;;;;;;7.85;5.60;;;;;;;18.04;65.79;101664.06;5082636;28;20052;-65
2022/09/11 00:37:18;;;;;;;11.02;6.20;;;;;;;18.03;65.79;101664.31;5087302;28;20044;-64
2022/09/11 00:39:48;;;;;;;10.10;6.55;;;;;;;18.02;65.69;101668.09;5085693;28;20155;-64
2022/09/11 00:42:16;;;;;;;9.07;6.18;;;;;;;18.01;65.96;101670.00;5076420;28;20041;-64
2022/09/11 00:44:59;;;;;;;9.48;6.15;;;;;;;18.00;65.83;101671.06;5067903;28;20057;-64
2022/09/11 00:47:30;;;;;;;8.02;5.55;;;;;;;18.00;65.67;101678.41;5079788;28;20066;-64
2022/09/11 00:50:09;;;;;;;11.25;5.90;;;;;;;17.97;65.58;101674.28;5086789;28;20049;-64
2022/09/11 00:52:41;;;;;;;8.93;6.03;;;;;;;17.96;65.71;101672.66;5086301;28;20056;-64
2022/09/11 00:55:12;;;;;;;7.97;5.55;;;;;;;17.95;65.66;101668.28;5078920;28;20048;-64
2022/09/11 00:57:44;;;;;;;7.57;6.30;;;;;;;17.97;65.47;101676.19;5077124;28;20048;-64
2022/09/11 01:00:13;;;;;;;7.40;5.93;;;;;;;17.95;65.56;101681.06;5085661;28;20045;-64
2022/09/11 01:02:47;;;;;;;8.90;6.65;;;;;;;17.94;65.62;101671.25;5077371;28;20083;-64
2022/09/11 01:05:15;;;;;;;8.00;6.78;;;;;;;17.93;65.51;101669.59;5085278;28;20424;-64
2022/09/11 01:07:45;;;;;;;12.75;6.72;;;;;;;17.92;65.56;101671.50;5078839;28;20048;-64
2022/09/11 01:10:13;;;;;;;10.25;6.55;;;;;;;17.91;65.65;101669.84;5091297;28;20040;-64
2022/09/11 01:12:49;;;;;;;10.25;6.68;;;;;;;17.92;65.54;101676.13;5094102;28;20036;-64
2022/09/11 01:15:24;;;;;;;10.60;7.25;;;;;;;17.89;65.72;101672.81;5067920;28;20059;-64
2022/09/11 01:18:02;;;;;;;9.95;7.38;;;;;;;17.88;65.66;101676.63;5075884;28;20067;-64
2022/09/11 01:20:45;;;;;;;9.65;7.43;;;;;;;17.89;65.65;101688.31;5083096;28;20059;-64
2022/09/11 01:23:48;;;;;;;9.77;7.18;;;;;;;17.89;65.61;101682.88;5083483;28;20040;-64
2022/09/11 01:26:44;;;;;;;9.35;7.03;;;;;;;17.87;65.63;101687.75;5093943;28;20048;-64
2022/09/11 01:29:18;;;;;;;11.55;7.25;;;;;;;17.86;65.50;101689.66;5061914;28;20052;-64
2022/09/11 01:31:54;;;;;;;9.32;7.40;;;;;;;17.85;65.56;101687.19;5084582;28;20068;-65
2022/09/11 01:34:31;;;;;;;8.48;7.10;;;;;;;17.84;65.42;101686.34;5072543;28;20051;-64
2022/09/11 01:37:04;;;;;;;10.88;6.68;;;;;;;17.85;65.78;101684.47;5078921;28;20060;-64
2022/09/11 01:39:38;;;;;;;14.18;7.15;;;;;;;17.83;65.41;101682.00;5082555;28;20508;-64
2022/09/11 01:42:13;;;;;;;8.75;6.68;;;;;;;17.83;65.37;101682.00;5085556;28;20040;-64
2022/09/11 01:44:47;;;;;;;8.93;7.10;;;;;;;17.84;65.65;101682.81;5083239;28;20059;-64
2022/09/11 01:47:17;;;;;;;9.18;6.80;;;;;;;17.83;65.47;101686.59;5080026;28;20060;-64
2022/09/11 01:49:50;;;;;;;8.90;7.05;;;;;;;17.79;65.50;101690.91;5083365;28;20055;-64
2022/09/11 01:52:23;;;;;;;10.32;7.78;;;;;;;17.80;65.46;101695.25;5080748;28;20053;-64
2022/09/11 01:54:56;;;;;;;10.32;7.57;;;;;;;17.70;65.41;101682.34;5076785;28;20051;-64
2022/09/11 01:57:29;;;;;;;9.23;7.38;;;;;;;17.79;65.33;101699.06;5090534;28;20045;-64
2022/09/11 02:00:01;;;;;;;12.13;9.05;;;;;;;17.79;65.37;101697.16;5078657;28;20075;-64
2022/09/11 02:02:35;;;;;;;13.05;7.70;;;;;;;17.78;65.14;101702.84;5085485;28;20058;-64
2022/09/11 02:05:09;;;;;;;9.77;8.07;;;;;;;17.73;65.52;101695.44;5085076;28;20063;-64
2022/09/11 02:07:40;;;;;;;16.15;7.50;;;;;;;17.77;65.09;101698.47;5085341;28;20036;-64
2022/09/11 02:10:13;;;;;;;10.23;7.80;;;;;;;17.77;65.13;101696.56;5081879;28;20052;-64
2022/09/11 02:12:50;;;;;;;9.70;7.93;;;;;;;17.76;65.15;101702.25;5081994;28;20041;-64
2022/09/11 02:15:20;;;;;;;9.80;8.00;;;;;;;17.76;65.03;101700.38;5084652;28;20048;-64
2022/09/11 02:17:53;;;;;;;9.43;7.10;;;;;;;17.74;65.20;101699.78;5085183;28;20045;-64
2022/09/11 02:20:21;;;;;;;9.40;7.40;;;;;;;17.73;64.99;101700.03;5076320;28;20053;-64
2022/09/11 02:22:49;;;;;;;8.32;7.28;;;;;;;17.72;65.09;101704.66;5071273;28;20045;-64
2022/09/11 02:25:17;;;;;;;11.93;7.63;;;;;;;17.72;65.13;101701.13;5080089;28;20313;-64
2022/09/11 02:27:44;;;;;;;8.60;7.70;;;;;;;17.71;65.03;101710.34;5084150;28;20087;-64
2022/09/11 02:30:13;;;;;;;11.55;7.28;;;;;;;17.69;65.01;101707.88;5071062;28;20053;-64
2022/09/11 02:32:44;;;;;;;15.43;7.43;;;;;;;17.69;65.04;101715.22;5083451;28;20045;-64
2022/09/11 02:35:12;;;;;;;9.23;7.35;;;;;;;17.67;64.88;101715.44;5065321;28;20055;-64
2022/09/11 02:37:49;;;;;;;11.68;7.40;;;;;;;17.66;64.88;101708.38;5077961;28;20041;-65
2022/09/11 02:40:31;;;;;;;8.88;7.13;;;;;;;17.65;64.91;101714.84;5072800;28;20049;-64
2022/09/11 02:43:17;;;;;;;11.60;7.80;;;;;;;17.64;64.83;101715.09;5094080;28;20065;-64
2022/09/11 02:45:56;;;;;;;9.25;6.85;;;;;;;17.63;64.74;101717.00;5068385;28;20052;-64
2022/09/11 02:48:43;;;;;;;11.27;7.10;;;;;;;17.62;64.82;101715.34;5072457;28;20429;-64
2022/09/11 02:51:20;;;;;;;9.23;6.95;;;;;;;17.61;64.93;101704.72;5085018;28;20097;-64
2022/09/11 02:53:57;;;;;;;12.75;7.65;;;;;;;17.60;64.91;101708.50;5072538;28;20051;-64
2022/09/11 02:56:32;;;;;;;9.68;7.28;;;;;;;17.58;64.71;101716.91;5081201;28;20371;-64
2022/09/11 02:59:06;;;;;;;8.75;7.60;;;;;;;17.58;64.63;101719.63;5074983;28;20048;-64
2022/09/11 03:01:46;;;;;;;8.88;7.90;;;;;;;17.56;64.67;101728.03;5084021;28;20055;-64
2022/09/11 03:04:17;;;;;;;10.85;7.60;;;;;;;17.56;64.67;101724.47;5077806;28;20056;-64
2022/09/11 03:06:47;;;;;;;9.95;7.43;;;;;;;17.55;64.65;101725.56;5071410;28;20094;-64
2022/09/11 03:09:15;;;;;;;9.65;7.45;;;;;;;17.54;64.57;101732.88;5073398;28;20045;-64
2022/09/11 03:11:42;;;;;;;9.70;7.30;;;;;;;17.53;64.54;101736.66;5093646;28;20382;-64
2022/09/11 03:14:11;;;;;;;11.07;8.98;;;;;;;17.52;64.61;101732.31;5083647;28;20052;-64
2022/09/11 03:16:39;;;;;;;11.35;7.40;;;;;;;17.51;64.33;101730.66;5077168;28;20056;-64
2022/09/11 03:19:07;;;;;;;9.73;8.13;;;;;;;17.50;64.38;101729.00;5082806;28;20048;-64
2022/09/11 03:21:36;;;;;;;10.52;7.57;;;;;;;17.50;64.51;101726.28;5080022;28;20055;-64
2022/09/11 03:24:05;;;;;;;10.30;7.60;;;;;;;17.50;64.38;101729.00;5080861;28;20045;-64
2022/09/11 03:26:33;;;;;;;8.70;6.55;;;;;;;17.48;64.37;101725.72;5091354;28;20055;-64
2022/09/11 03:29:00;;;;;;;9.43;6.57;;;;;;;17.49;64.33;101727.38;5071405;28;20049;-64
2022/09/11 03:31:28;;;;;;;8.43;6.82;;;;;;;17.48;64.36;101733.03;5070494;28;20144;-64
2022/09/11 03:33:56;;;;;;;10.35;7.38;;;;;;;17.46;64.40;101730.56;5085295;28;20044;-64
2022/09/11 03:36:23;;;;;;;11.95;8.13;;;;;;;17.46;64.29;101730.56;5075131;28;20148;-64
2022/09/11 03:38:54;;;;;;;10.10;7.38;;;;;;;17.45;63.96;101731.66;5083299;28;20044;-64
2022/09/11 03:41:21;;;;;;;8.93;7.22;;;;;;;17.46;63.97;101737.91;5078523;28;20059;-64
2022/09/11 03:43:49;;;;;;;9.45;7.05;;;;;;;17.45;64.02;101726.22;5084430;28;20056;-64
2022/09/11 03:46:17;;;;;;;11.05;7.85;;;;;;;17.43;64.03;101733.78;5083405;28;20413;-64
2022/09/11 03:48:46;;;;;;;11.23;7.25;;;;;;;17.43;63.88;101733.78;5081376;28;20202;-64
2022/09/11 03:51:14;;;;;;;8.52;7.22;;;;;;;17.42;64.06;101732.13;5079357;28;20048;-64
2022/09/11 03:53:42;;;;;;;10.15;7.88;;;;;;;17.41;63.98;101741.34;5083006;28;20044;-64
2022/09/11 03:56:13;;;;;;;9.80;7.10;;;;;;;17.40;64.15;101739.72;5082606;28;20508;-64
2022/09/11 03:58:42;;;;;;;12.70;9.02;;;;;;;17.40;64.30;101728.84;5073634;28;20048;-64
2022/09/11 04:01:11;;;;;;;15.50;8.63;;;;;;;17.39;64.36;101740.78;5065206;28;20052;-64
2022/09/11 04:03:39;;;;;;;11.88;8.45;;;;;;;17.39;64.37;101738.06;5082948;28;20454;-64
2022/09/11 04:06:08;;;;;;;10.80;8.38;;;;;;;17.39;64.29;101739.94;5083441;28;20143;-64
2022/09/11 04:08:36;;;;;;;13.20;8.07;;;;;;;17.37;64.32;101737.47;5081240;28;20040;-64
2022/09/11 04:11:06;;;;;;;11.88;8.35;;;;;;;17.38;64.38;101741.84;5085911;28;20045;-64
2022/09/11 04:13:37;;;;;;;11.82;8.40;;;;;;;17.37;64.33;101732.03;5087245;28;20063;-64
2022/09/11 04:16:08;;;;;;;13.00;9.38;;;;;;;17.37;64.38;101732.03;5082747;28;20048;-64
2022/09/11 04:18:38;;;;;;;10.15;8.30;;;;;;;17.37;64.43;101725.78;5086920;28;20166;-64
2022/09/11 04:21:07;;;;;;;13.05;8.98;;;;;;;17.36;64.61;101730.41;5077927;28;20051;-64
2022/09/11 04:23:35;;;;;;;11.43;9.90;;;;;;;17.35;64.59;101736.91;5080691;28;20041;-64
2022/09/11 04:26:03;;;;;;;11.60;10.18;;;;;;;17.34;64.71;101729.00;5087165;28;20045;-64
2022/09/11 04:28:31;;;;;;;10.00;8.80;;;;;;;17.33;64.99;101735.53;5075574;28;20474;-64
2022/09/11 04:31:04;;;;;;;11.90;8.75;;;;;;;17.31;64.81;101727.63;5080912;28;20041;-64
2022/09/11 04:33:31;;;;;;;9.85;8.77;;;;;;;17.31;64.91;101730.34;5092799;28;20051;-64
2022/09/11 04:36:04;;;;;;;11.18;9.40;;;;;;;17.32;64.78;101736.59;5085507;28;20048;-64
2022/09/11 04:38:32;;;;;;;10.52;9.38;;;;;;;17.29;64.81;101737.91;5074054;28;20056;-64
2022/09/11 04:41:01;;;;;;;10.98;9.25;;;;;;;17.31;64.89;101737.66;5073785;28;20052;-64
2022/09/11 04:43:30;;;;;;;10.98;9.32;;;;;;;17.28;64.93;101736.25;5085400;28;20041;-64
2022/09/11 04:46:04;;;;;;;15.23;10.38;;;;;;;17.28;65.08;101738.97;5081877;28;20162;-64
2022/09/11 04:48:32;;;;;;;10.77;9.63;;;;;;;17.23;65.34;101737.00;5084978;28;20078;-64
2022/09/11 04:51:02;;;;;;;10.65;9.07;;;;;;;17.24;65.03;101740.53;5066613;28;20068;-64
2022/09/11 04:53:30;;;;;;;12.13;9.32;;;;;;;17.23;65.17;101747.03;5081430;28;20045;-64
2022/09/11 04:56:03;;;;;;;10.60;8.98;;;;;;;17.22;65.07;101739.97;5066689;28;20053;-64
2022/09/11 04:58:31;;;;;;;9.98;8.63;;;;;;;17.22;65.02;101748.09;5085406;28;20055;-65
2022/09/11 05:00:58;;;;;;;9.82;8.50;;;;;;;17.22;65.09;101743.50;5086784;28;20055;-64
2022/09/11 05:03:28;;;;;;;11.73;8.60;;;;;;;17.21;65.25;101743.75;5076171;28;20045;-64
2022/09/11 05:05:57;;;;;;;8.80;7.68;;;;;;;17.20;65.02;101756.50;5080091;28;20102;-64
2022/09/11 05:08:25;;;;;;;9.93;8.30;;;;;;;17.20;65.17;101753.78;5096437;28;20064;-64
2022/09/11 05:10:53;;;;;;;10.68;8.50;;;;;;;17.20;65.22;101744.81;5077844;28;20151;-64
2022/09/11 05:13:22;;;;;;;8.30;7.30;;;;;;;17.20;65.08;101752.97;5087415;28;20044;-63
2022/09/11 05:15:50;;;;;;;8.63;7.63;;;;;;;17.19;65.01;101760.28;5083437;28;20508;-63
2022/09/11 05:18:18;;;;;;;13.25;8.55;;;;;;;17.19;64.99;101768.44;5086242;28;20059;-62
2022/09/11 05:20:47;;;;;;;8.15;7.20;;;;;;;17.19;64.99;101768.44;5085926;28;20066;-63
2022/09/11 05:23:14;;;;;;;7.60;6.80;;;;;;;17.19;64.91;101770.34;5079422;28;20046;-63
2022/09/11 05:25:42;;;;;;;8.55;7.30;;;;;;;17.19;64.97;101779.31;5065689;28;20404;-64
2022/09/11 05:28:10;;;;;;;7.97;7.18;;;;;;;17.18;65.07;101780.38;5083331;28;20158;-64
2022/09/11 05:30:38;;;;;;;7.47;6.68;;;;;;;17.19;64.89;101787.44;5077762;28;20051;-65
2022/09/11 05:33:06;;;;;;;8.13;7.32;;;;;;;17.18;64.97;101793.97;5082448;28;20048;-63
2022/09/11 05:35:34;;;;;;;8.35;6.80;;;;;;;17.18;64.97;101798.56;4726560;28;10000050;-64
2022/09/11 05:38:03;;;;;;;8.15;5.72;;;;;;;17.17;65.11;101805.06;5075681;28;20428;-64
2022/09/11 05:40:31;;;;;;;9.23;6.53;;;;;;;17.16;65.01;101809.66;5070900;28;20049;-63
2022/09/11 05:42:58;;;;;;;8.10;6.10;;;;;;;17.16;64.89;101814.28;5072620;28;20044;-63
2022/09/11 05:45:26;;;;;;;7.00;6.30;;;;;;;17.14;64.93;101811.81;5077853;28;20059;-62
2022/09/11 05:47:54;;;;;;;6.82;6.13;;;;;;;17.13;64.68;101812.88;5074311;28;20067;-63
2022/09/11 05:50:22;;;;;;;7.30;5.95;;;;;;;17.12;64.99;101813.94;5074484;28;20080;-65
2022/09/11 05:52:50;;;;;;;6.95;5.95;;;;;;;17.13;64.79;101822.91;5070748;28;20049;-62
2022/09/11 05:55:19;;;;;;;7.00;5.82;;;;;;;17.12;64.89;101824.81;5081237;28;20048;-63
2022/09/11 05:57:46;;;;;;;6.10;5.50;;;;;;;17.10;64.87;101824.22;5070801;28;20052;-63
2022/09/11 06:00:15;;;;;;;6.20;5.60;;;;;;;17.09;64.60;101824.47;5078785;28;20053;-64
2022/09/11 06:02:42;;;;;;;8.13;6.03;;;;;;;17.08;65.03;101830.97;5081901;28;20052;-62
2022/09/11 06:05:10;;;;;;;6.28;5.32;;;;;;;17.08;64.79;101825.53;5069021;28;20056;-62
2022/09/11 06:07:38;;;;;;;6.10;5.50;;;;;;;17.08;64.73;101841.81;5079653;28;20044;-62
2022/09/11 06:10:07;;;;;;;7.43;6.10;;;;;;;17.08;64.71;101839.94;5075641;28;20051;-62
2022/09/11 06:12:36;;;;;;;6.95;5.22;;;;;;;17.06;64.85;101836.63;5077469;28;20044;-61
2022/09/11 06:15:04;;;;;;;5.63;5.07;;;;;;;17.05;64.66;101840.41;5077067;28;20049;-63
2022/09/11 06:17:32;;;;;;;6.72;5.28;;;;;;;17.02;65.27;101840.91;5063998;28;20069;-62
2022/09/11 06:19:59;;;;;;;6.18;5.10;;;;;;;17.02;65.28;101851.75;5077600;28;20056;-62
2022/09/11 06:22:28;;;;;;;6.75;5.43;;;;;;;17.02;65.00;101850.94;5079134;28;20525;-61
2022/09/11 06:24:56;;;;;;;6.40;5.18;;;;;;;17.03;65.00;101852.59;5077619;28;20530;-61
2022/09/11 06:27:24;;;;;;;6.07;5.32;;;;;;;17.03;65.07;101850.69;5077858;28;20395;-62
2022/09/11 06:29:54;;;;;;;5.90;5.20;;;;;;;17.03;64.95;101853.41;5068026;28;20403;-61
2022/09/11 06:32:22;;;;;;;4.80;4.30;;;;;;;17.04;65.05;101860.50;5074816;28;20052;-62
2022/09/11 06:34:49;;;;;;;5.93;4.72;;;;;;;17.04;64.96;101865.09;5080666;28;20051;-61
2022/09/11 06:37:17;;;;;;;5.57;4.72;;;;;;;17.03;64.83;101867.00;5080783;28;20094;-61
2022/09/11 06:39:45;;;;;;;6.50;4.38;;;;;;;17.04;65.08;101871.34;5073772;28;20053;-62
2022/09/11 06:42:13;;;;;;;5.68;5.10;;;;;;;17.04;65.05;101873.25;5080797;28;20052;-61
2022/09/11 06:44:41;;;;;;;5.20;4.57;;;;;;;17.04;65.12;101868.63;5069211;28;20766;-62
2022/09/11 06:47:10;;;;;;;4.80;4.30;;;;;;;17.04;64.93;101859.66;5074599;28;20059;-62
2022/09/11 06:49:38;;;;;;;4.15;3.75;;;;;;;17.03;65.15;101864.28;5079125;28;20048;-62
2022/09/11 06:52:05;;;;;;;5.22;4.72;;;;;;;17.03;65.26;101864.28;5076647;28;20072;-62
2022/09/11 06:54:33;;;;;;;5.07;4.22;;;;;;;17.04;65.07;101865.91;5075481;28;20059;-62
2022/09/11 06:57:01;;;;;;;4.68;4.13;;;;;;;17.04;65.17;101876.78;5075847;28;20053;-61
2022/09/11 06:59:29;;;;;;;4.45;4.00;;;;;;;17.05;65.17;101877.63;5068380;28;20059;-61
2022/09/11 07:01:56;;;;;;;4.85;4.35;;;;;;;17.04;65.08;101875.97;5079316;28;20049;-62
2022/09/11 07:04:27;;;;;;;4.85;4.28;;;;;;;17.05;65.36;101874.91;5068366;28;20049;-62
2022/09/11 07:06:55;;;;;;;4.22;3.83;;;;;;;17.03;65.26;101872.41;5076468;28;20045;-64
2022/09/11 07:09:22;;;;;;;4.50;4.10;;;;;;;17.04;65.50;101878.69;5073716;28;20052;-62
2022/09/11 07:11:50;;;;;;;4.97;4.30;;;;;;;17.03;65.40;101874.31;5077155;28;20053;-61
2022/09/11 07:14:20;;;;;;;4.63;4.13;;;;;;;17.02;65.41;101865.34;5068001;28;20049;-61
2022/09/11 07:16:49;;;;;;;4.57;3.90;;;;;;;17.03;65.52;101868.88;5072249;28;20071;-61
2022/09/11 07:19:17;;;;;;;4.68;4.28;;;;;;;17.03;65.53;101868.88;5078011;28;20112;-61
2022/09/11 07:21:47;;;;;;;4.88;3.83;;;;;;;17.02;65.58;101870.78;5073888;28;20052;-61
2022/09/11 07:24:14;;;;;;;4.85;3.97;;;;;;;17.01;65.72;101879.16;5073199;28;20060;-62
2022/09/11 07:26:42;;;;;;;4.32;3.72;;;;;;;17.01;65.69;101879.16;5074685;28;20052;-62
2022/09/11 07:29:11;;;;;;;4.25;3.47;;;;;;;17.00;65.85;101874.78;5076766;28;20050;-62
2022/09/11 07:31:41;;;;;;;4.05;3.20;;;;;;;17.00;65.62;101881.03;5066383;28;20059;-61
2022/09/11 07:34:09;;;;;;;4.43;3.58;;;;;;;16.99;65.81;101882.13;5076800;28;20055;-62
2022/09/11 07:36:37;;;;;;;4.30;3.72;;;;;;;16.99;65.89;101879.41;5074728;28;20044;-67
2022/09/11 07:39:06;;;;;;;4.55;3.78;;;;;;;16.99;66.46;101878.56;5082472;28;20049;-65
2022/09/11 07:41:34;;;;;;;4.88;4.28;;;;;;;16.99;66.51;101879.41;5088616;28;20044;-64
2022/09/11 07:44:02;;;;;;;6.35;4.18;;;;;;;17.00;66.48;101877.50;5083965;28;20048;-64
2022/09/11 07:46:31;;;;;;;4.80;3.88;;;;;;;17.01;66.51;101879.16;5070715;28;20048;-65
2022/09/11 07:49:00;;;;;;;5.70;4.07;;;;;;;17.00;66.57;101878.34;5081374;28;20316;-64
2022/09/11 07:51:28;;;;;;;7.10;3.50;;;;;;;17.02;66.43;101875.38;5086627;28;20051;-63
2022/09/11 07:53:58;;;;;;;7.03;3.85;;;;;;;17.01;66.40;101874.56;5073040;28;20052;-63
2022/09/11 07:56:29;;;;;;;5.65;3.75;;;;;;;17.02;66.43;101876.19;5076588;28;20040;-65
2022/09/11 07:58:57;;;;;;;5.53;3.65;;;;;;;17.01;66.15;101881.88;5078728;28;20060;-68
2022/09/11 08:01:28;;;;;;;4.47;3.90;;;;;;;17.03;66.39;101886.00;5084737;28;20049;-66
2022/09/11 08:03:57;;;;;;;4.18;3.70;;;;;;;17.03;66.61;101886.00;5085047;28;20067;-65
2022/09/11 08:06:27;;;;;;;4.70;3.88;;;;;;;17.06;66.68;101890.13;5067480;28;20045;-65
2022/09/11 08:08:56;;;;;;;5.35;4.10;;;;;;;17.04;66.53;101884.94;5080717;28;20052;-65
2022/09/11 08:11:25;;;;;;;5.30;4.03;;;;;;;17.07;66.55;101889.88;5082259;28;20052;-65
2022/09/11 08:13:55;;;;;;;4.68;3.70;;;;;;;17.06;66.59;101888.22;5086331;28;20066;-65
2022/09/11 08:16:24;;;;;;;6.78;3.75;;;;;;;17.10;66.92;101888.59;5074852;28;20044;-64
2022/09/11 08:18:52;;;;;;;5.30;4.57;;;;;;;17.11;66.64;101899.22;5071643;28;20060;-65
2022/09/11 08:21:21;;;;;;;5.53;4.47;;;;;;;17.12;66.50;101898.16;5073622;28;20049;-66
2022/09/11 08:23:49;;;;;;;6.88;4.53;;;;;;;17.12;66.78;101898.16;5076739;28;20053;-66
2022/09/11 08:26:20;;;;;;;4.93;3.95;;;;;;;17.14;66.58;101908.78;5083164;28;20060;-65
2022/09/11 08:28:49;;;;;;;8.18;4.68;;;;;;;17.13;66.68;101907.94;5086841;28;20068;-65
2022/09/11 08:31:20;;;;;;;5.82;4.47;;;;;;;17.17;66.79;101913.72;5079076;28;20091;-64
2022/09/11 08:33:49;;;;;;;5.25;4.53;;;;;;;17.17;66.73;101913.72;5084923;28;20044;-64
2022/09/11 08:36:16;;;;;;;6.07;4.63;;;;;;;17.18;66.85;101921.63;5080365;28;20051;-66
2022/09/11 08:38:45;;;;;;;8.52;5.20;;;;;;;17.18;66.87;101909.94;5085820;28;20053;-66
2022/09/11 08:41:36;;;;;;;6.80;5.32;;;;;;;17.19;66.91;101915.13;5091064;28;20437;-66
2022/09/11 08:44:11;;;;;;;6.95;5.00;;;;;;;17.20;66.80;101915.97;5076108;28;20049;-65
2022/09/11 08:46:44;;;;;;;6.90;4.85;;;;;;;17.20;67.02;101914.06;5074904;28;20144;-65
2022/09/11 08:49:18;;;;;;;7.70;5.50;;;;;;;17.22;66.87;101922.81;5082148;28;20053;-65
2022/09/11 08:51:48;;;;;;;7.05;5.53;;;;;;;17.21;67.04;101918.44;5091900;28;20123;-65
2022/09/11 08:54:26;;;;;;;6.45;5.32;;;;;;;17.23;66.94;101924.47;5076007;28;20334;-66
2022/09/11 08:57:05;;;;;;;8.43;6.35;;;;;;;17.24;67.11;101922.56;5085588;28;20044;-67
2022/09/11 08:59:54;;;;;;;9.20;6.07;;;;;;;17.25;67.10;101929.66;5083762;28;20059;-67
2022/09/11 09:02:47;;;;;;;7.35;6.07;;;;;;;17.26;67.17;101922.34;5082661;28;20047;-67
2022/09/11 09:05:25;;;;;;;8.40;6.60;;;;;;;17.26;67.21;101920.44;5072238;28;20053;-67
2022/09/11 09:08:07;;;;;;;7.55;5.80;;;;;;;17.27;67.43;101921.25;5086798;28;20057;-67
2022/09/11 09:10:49;;;;;;;8.52;6.10;;;;;;;17.26;67.41;101922.34;5086071;28;20416;-67
2022/09/11 09:13:36;;;;;;;8.05;6.25;;;;;;;17.28;67.57;101925.63;5069506;28;20103;-67
2022/09/11 09:16:17;;;;;;;8.52;6.55;;;;;;;17.28;67.36;101931.91;5079819;28;20060;-67
2022/09/11 09:18:50;;;;;;;7.63;5.78;;;;;;;17.30;67.45;101934.38;5083330;28;20056;-67
2022/09/11 09:21:26;;;;;;;8.77;5.68;;;;;;;17.30;67.35;101931.66;5083645;28;20053;-66
2022/09/11 09:23:56;;;;;;;7.55;5.20;;;;;;;17.30;67.39;101935.19;5066756;28;20048;-67
2022/09/11 09:26:29;;;;;;;9.75;5.70;;;;;;;17.33;67.38;101942.03;5085481;28;20140;-67
2022/09/11 09:29:09;;;;;;;8.88;5.65;;;;;;;17.35;67.53;101939.88;5078685;28;20075;-67
2022/09/11 09:31:37;;;;;;;8.57;4.95;;;;;;;17.36;67.39;101949.69;5085746;28;20052;-66
2022/09/11 09:34:14;;;;;;;7.25;5.88;;;;;;;17.38;67.54;101945.66;5084196;28;20067;-66
2022/09/11 09:36:50;;;;;;;7.28;5.03;;;;;;;17.40;67.48;101937.25;5078602;28;20045;-66
2022/09/11 09:39:19;;;;;;;9.10;5.30;;;;;;;17.46;67.45;101933.59;5085885;28;20084;-66
2022/09/11 09:42:00;;;;;;;6.10;4.85;;;;;;;17.50;67.23;101941.00;5073118;28;20303;-67
2022/09/11 09:44:57;;;;;;;5.95;4.90;;;;;;;17.56;67.05;101942.78;5075752;28;20052;-66
2022/09/11 09:47:25;;;;;;;6.15;4.70;;;;;;;17.61;67.24;101944.75;5069776;28;20044;-66
2022/09/11 09:49:57;;;;;;;6.15;4.82;;;;;;;17.61;67.22;101936.59;5083302;28;20044;-65
2022/09/11 09:52:27;;;;;;;6.55;4.95;;;;;;;17.66;67.21;101947.63;5092407;28;20531;-63
2022/09/11 09:54:59;;;;;;;7.72;5.22;;;;;;;17.69;67.20;101946.31;5065407;28;20060;-69
2022/09/11 09:57:31;;;;;;;6.82;5.63;;;;;;;17.71;67.18;101946.88;5071330;28;20104;-67
2022/09/11 10:00:05;;;;;;;9.10;5.60;;;;;;;17.71;67.42;101941.44;5065402;28;20053;-68
2022/09/11 10:02:40;;;;;;;5.95;5.20;;;;;;;17.74;67.15;101936.34;5068258;28;20074;-66
2022/09/11 10:05:18;;;;;;;8.73;5.78;;;;;;;17.80;67.23;101935.38;5084155;28;20052;-69
2022/09/11 10:07:48;;;;;;;8.90;5.90;;;;;;;17.85;67.23;101940.91;5084900;28;20057;-65
2022/09/11 10:10:25;;;;;;;7.95;6.05;;;;;;;17.88;66.97;101942.31;5084033;28;20059;-67
2022/09/11 10:12:54;;;;;;;8.43;6.18;;;;;;;17.94;67.04;101949.50;5077928;28;20041;-67
2022/09/11 10:15:42;;;;;;;8.65;6.47;;;;;;;17.96;66.85;101949.25;5081709;28;20066;-67
2022/09/11 10:18:34;;;;;;;6.85;5.10;;;;;;;17.98;66.88;101947.94;5074571;28;20053;-67
2022/09/11 10:21:28;;;;;;;9.07;6.13;;;;;;;18.00;66.75;101944.97;5080850;28;20058;-67
2022/09/11 10:23:58;;;;;;;6.50;5.15;;;;;;;18.02;66.81;101945.56;5083007;28;20377;-66
2022/09/11 10:26:32;;;;;;;8.00;5.15;;;;;;;18.03;66.60;101945.31;5070822;28;20064;-67
2022/09/11 10:29:07;;;;;;;6.05;4.72;;;;;;;18.06;66.48;101949.44;5082659;28;20052;-68
2022/09/11 10:31:36;;;;;;;5.65;4.82;;;;;;;18.06;66.75;101947.56;5087649;28;20051;-67
2022/09/11 10:34:04;;;;;;;6.07;4.63;;;;;;;18.07;66.54;101940.22;5074526;28;20411;-68
2022/09/11 10:36:34;;;;;;;6.15;4.65;;;;;;;18.09;66.49;101948.97;5070925;28;20047;-68
2022/09/11 10:39:02;;;;;;;7.25;4.55;;;;;;;18.11;66.63;101941.38;5068237;28;20060;-70
2022/09/11 10:41:35;;;;;;;5.70;4.10;;;;;;;18.12;66.62;101938.41;5076277;28;20053;-67
2022/09/11 10:44:06;;;;;;;8.45;5.63;;;;;;;18.13;66.84;101941.97;5067414;28;20063;-67
2022/09/11 10:46:36;;;;;;;7.15;4.30;;;;;;;18.14;66.65;101936.28;5083566;28;20492;-67
2022/09/11 10:49:15;;;;;;;5.32;4.63;;;;;;;18.14;66.84;101944.44;5084702;28;20048;-71
2022/09/11 10:51:59;;;;;;;4.72;4.05;;;;;;;18.14;66.89;101939.00;5077847;28;20048;-71
2022/09/11 10:54:40;;;;;;;6.28;4.75;;;;;;;18.15;66.91;101937.09;5087235;28;20059;-72
2022/09/11 10:57:18;;;;;;;9.65;5.88;;;;;;;18.16;66.90;101939.56;5065244;28;20052;-71
2022/09/11 10:59:57;;;;;;;4.78;4.22;;;;;;;18.17;66.86;101941.22;5072725;28;20048;-73
2022/09/11 11:02:30;;;;;;;7.82;5.05;;;;;;;18.19;66.92;101930.91;5084171;28;20065;-72
2022/09/11 11:05:03;;;;;;;5.97;4.13;;;;;;;18.22;67.08;101935.03;5083688;28;20067;-71
2022/09/11 11:07:47;;;;;;;6.43;4.13;;;;;;;18.24;66.99;101937.50;5076090;28;20053;-72
2022/09/11 11:10:31;;;;;;;8.48;5.38;;;;;;;18.25;66.87;101940.00;5083738;28;20052;-71
2022/09/11 11:13:13;;;;;;;5.50;4.10;;;;;;;18.29;67.17;101940.31;5088404;28;20050;-72
2022/09/11 11:15:56;;;;;;;5.82;3.63;;;;;;;18.31;67.25;101943.63;5083078;28;20472;-72
2022/09/11 11:18:46;;;;;;;5.88;3.90;;;;;;;18.33;67.07;101945.03;5083771;28;20055;-72
2022/09/11 11:21:25;;;;;;;6.93;4.45;;;;;;;18.35;66.81;101945.59;5085019;28;20045;-71
2022/09/11 11:24:05;;;;;;;6.05;4.60;;;;;;;18.39;66.92;101937.78;5077133;28;20064;-72
2022/09/11 11:26:46;;;;;;;6.70;4.47;;;;;;;18.44;66.91;101935.13;5080786;28;20044;-70
2022/09/11 11:29:32;;;;;;;8.35;4.82;;;;;;;18.49;66.95;101933.31;5079297;28;20060;-70
2022/09/11 11:32:22;;;;;;;7.80;4.10;;;;;;;18.54;67.35;101927.94;5082817;28;20052;-70
2022/09/11 11:35:07;;;;;;;4.80;4.15;;;;;;;18.61;67.99;101927.81;5088456;28;20048;-70
2022/09/11 11:37:41;;;;;;;7.57;3.65;;;;;;;18.64;67.43;101927.31;5084481;28;20060;-69
2022/09/11 11:40:18;;;;;;;7.47;3.72;;;;;;;18.67;67.79;101932.25;5078935;28;20053;-69
2022/09/11 11:42:50;;;;;;;5.07;3.47;;;;;;;18.71;67.74;101935.31;5067872;28;20601;-69
2022/09/11 11:45:30;;;;;;;5.07;4.00;;;;;;;18.74;67.02;101934.81;5067747;28;20075;-72